sensor_id;sensor_type;location;lat;lon;timestamp;temperature;humidity
54540;SHT30;40438;52.992;18.604;2023-04-24T00:00:10;14.77;77.13
54540;SHT30;40438;52.992;18.604;2023-04-24T00:02:36;14.76;77.06
54540;SHT30;40438;52.992;18.604;2023-04-24T00:05:04;14.76;77.02
54540;SHT30;40438;52.992;18.604;2023-04-24T00:07:29;14.77;76.96
54540;SHT30;40438;52.992;18.604;2023-04-24T00:09:55;14.75;77.05
54540;SHT30;40438;52.992;18.604;2023-04-24T00:12:21;14.73;77.00
54540;SHT30;40438;52.992;18.604;2023-04-24T00:14:47;14.73;76.94
54540;SHT30;40438;52.992;18.604;2023-04-24T00:17:13;14.76;76.67
54540;SHT30;40438;52.992;18.604;2023-04-24T00:19:39;14.73;76.79
54540;SHT30;40438;52.992;18.604;2023-04-24T00:22:06;14.65;76.93
54540;SHT30;40438;52.992;18.604;2023-04-24T00:24:32;14.63;77.01
54540;SHT30;40438;52.992;18.604;2023-04-24T00:26:57;14.59;77.14
54540;SHT30;40438;52.992;18.604;2023-04-24T00:29:23;14.60;77.23
54540;SHT30;40438;52.992;18.604;2023-04-24T00:31:49;14.63;77.17
54540;SHT30;40438;52.992;18.604;2023-04-24T00:34:15;14.63;77.14
54540;SHT30;40438;52.992;18.604;2023-04-24T00:36:41;14.66;76.83
54540;SHT30;40438;52.992;18.604;2023-04-24T00:39:08;14.69;76.52
54540;SHT30;40438;52.992;18.604;2023-04-24T00:41:34;14.72;76.30
54540;SHT30;40438;52.992;18.604;2023-04-24T00:43:59;14.72;76.13
54540;SHT30;40438;52.992;18.604;2023-04-24T00:46:25;14.73;76.02
54540;SHT30;40438;52.992;18.604;2023-04-24T00:48:51;14.77;75.85
54540;SHT30;40438;52.992;18.604;2023-04-24T00:51:17;14.76;75.93
54540;SHT30;40438;52.992;18.604;2023-04-24T00:53:43;14.76;76.00
54540;SHT30;40438;52.992;18.604;2023-04-24T00:56:11;14.76;75.91
54540;SHT30;40438;52.992;18.604;2023-04-24T00:58:37;14.76;75.93
54540;SHT30;40438;52.992;18.604;2023-04-24T01:01:03;14.75;76.00
54540;SHT30;40438;52.992;18.604;2023-04-24T01:03:29;14.73;76.08
54540;SHT30;40438;52.992;18.604;2023-04-24T01:05:55;14.70;76.30
54540;SHT30;40438;52.992;18.604;2023-04-24T01:08:23;14.73;76.40
54540;SHT30;40438;52.992;18.604;2023-04-24T01:10:51;14.73;76.24
54540;SHT30;40438;52.992;18.604;2023-04-24T01:13:20;14.69;76.33
54540;SHT30;40438;52.992;18.604;2023-04-24T01:15:46;14.66;76.54
54540;SHT30;40438;52.992;18.604;2023-04-24T01:18:11;14.68;76.43
54540;SHT30;40438;52.992;18.604;2023-04-24T01:20:39;14.62;76.79
54540;SHT30;40438;52.992;18.604;2023-04-24T01:23:07;14.59;76.86
54540;SHT30;40438;52.992;18.604;2023-04-24T01:25:33;14.58;76.86
54540;SHT30;40438;52.992;18.604;2023-04-24T01:28:00;14.59;76.94
54540;SHT30;40438;52.992;18.604;2023-04-24T01:30:26;14.65;76.87
54540;SHT30;40438;52.992;18.604;2023-04-24T01:32:52;14.59;77.00
54540;SHT30;40438;52.992;18.604;2023-04-24T01:35:18;14.53;76.99
54540;SHT30;40438;52.992;18.604;2023-04-24T01:37:44;14.48;77.23
54540;SHT30;40438;52.992;18.604;2023-04-24T01:40:11;14.46;77.32
54540;SHT30;40438;52.992;18.604;2023-04-24T01:42:37;14.48;76.98
54540;SHT30;40438;52.992;18.604;2023-04-24T01:45:04;14.52;76.91
54540;SHT30;40438;52.992;18.604;2023-04-24T01:47:31;14.55;76.92
54540;SHT30;40438;52.992;18.604;2023-04-24T01:49:57;14.56;76.74
54540;SHT30;40438;52.992;18.604;2023-04-24T01:52:23;14.53;76.78
54540;SHT30;40438;52.992;18.604;2023-04-24T01:54:48;14.52;76.71
54540;SHT30;40438;52.992;18.604;2023-04-24T01:57:17;14.46;76.88
54540;SHT30;40438;52.992;18.604;2023-04-24T01:59:43;14.43;76.89
54540;SHT30;40438;52.992;18.604;2023-04-24T02:02:09;14.46;76.92
54540;SHT30;40438;52.992;18.604;2023-04-24T02:04:35;14.46;77.03
54540;SHT30;40438;52.992;18.604;2023-04-24T02:07:01;14.46;76.96
54540;SHT30;40438;52.992;18.604;2023-04-24T02:09:27;14.48;76.95
54540;SHT30;40438;52.992;18.604;2023-04-24T02:11:53;14.48;76.95
54540;SHT30;40438;52.992;18.604;2023-04-24T02:14:20;14.46;76.87
54540;SHT30;40438;52.992;18.604;2023-04-24T02:16:46;14.48;76.87
54540;SHT30;40438;52.992;18.604;2023-04-24T02:19:11;14.48;76.66
54540;SHT30;40438;52.992;18.604;2023-04-24T02:21:37;14.51;76.57
54540;SHT30;40438;52.992;18.604;2023-04-24T02:24:03;14.48;76.53
54540;SHT30;40438;52.992;18.604;2023-04-24T02:26:29;14.52;76.49
54540;SHT30;40438;52.992;18.604;2023-04-24T02:28:55;14.52;76.59
54540;SHT30;40438;52.992;18.604;2023-04-24T02:31:22;14.49;76.60
54540;SHT30;40438;52.992;18.604;2023-04-24T02:33:47;14.43;76.96
54540;SHT30;40438;52.992;18.604;2023-04-24T02:36:13;14.42;76.97
54540;SHT30;40438;52.992;18.604;2023-04-24T02:38:39;14.39;77.10
54540;SHT30;40438;52.992;18.604;2023-04-24T02:41:05;14.38;77.17
54540;SHT30;40438;52.992;18.604;2023-04-24T02:43:31;14.31;77.37
54540;SHT30;40438;52.992;18.604;2023-04-24T02:45:57;14.26;77.43
54540;SHT30;40438;52.992;18.604;2023-04-24T02:48:24;14.24;77.64
54540;SHT30;40438;52.992;18.604;2023-04-24T02:50:50;14.21;77.71
54540;SHT30;40438;52.992;18.604;2023-04-24T02:53:16;14.21;77.54
54540;SHT30;40438;52.992;18.604;2023-04-24T02:55:42;14.24;77.54
54540;SHT30;40438;52.992;18.604;2023-04-24T02:58:08;14.19;77.71
54540;SHT30;40438;52.992;18.604;2023-04-24T03:00:34;14.11;77.89
54540;SHT30;40438;52.992;18.604;2023-04-24T03:03:00;14.10;78.00
54540;SHT30;40438;52.992;18.604;2023-04-24T03:05:27;14.12;78.09
54540;SHT30;40438;52.992;18.604;2023-04-24T03:07:53;14.11;77.89
54540;SHT30;40438;52.992;18.604;2023-04-24T03:10:20;14.15;77.78
54540;SHT30;40438;52.992;18.604;2023-04-24T03:12:47;14.21;77.48
54540;SHT30;40438;52.992;18.604;2023-04-24T03:15:13;14.22;77.27
54540;SHT30;40438;52.992;18.604;2023-04-24T03:17:39;14.25;77.08
54540;SHT30;40438;52.992;18.604;2023-04-24T03:20:06;14.25;77.00
54540;SHT30;40438;52.992;18.604;2023-04-24T03:22:34;14.25;76.81
54540;SHT30;40438;52.992;18.604;2023-04-24T03:25:00;14.29;76.67
54540;SHT30;40438;52.992;18.604;2023-04-24T03:27:27;14.28;76.51
54540;SHT30;40438;52.992;18.604;2023-04-24T03:29:55;14.29;76.39
54540;SHT30;40438;52.992;18.604;2023-04-24T03:32:26;14.31;76.47
54540;SHT30;40438;52.992;18.604;2023-04-24T03:34:52;14.28;76.48
54540;SHT30;40438;52.992;18.604;2023-04-24T03:37:17;14.28;76.62
54540;SHT30;40438;52.992;18.604;2023-04-24T03:39:52;14.19;76.91
54540;SHT30;40438;52.992;18.604;2023-04-24T03:42:22;14.15;76.95
54540;SHT30;40438;52.992;18.604;2023-04-24T03:44:54;14.10;76.88
54540;SHT30;40438;52.992;18.604;2023-04-24T03:47:24;14.05;77.10
54540;SHT30;40438;52.992;18.604;2023-04-24T03:49:51;14.08;77.18
54540;SHT30;40438;52.992;18.604;2023-04-24T03:52:17;14.14;76.91
54540;SHT30;40438;52.992;18.604;2023-04-24T03:54:43;14.10;76.68
54540;SHT30;40438;52.992;18.604;2023-04-24T03:57:11;14.08;76.70
54540;SHT30;40438;52.992;18.604;2023-04-24T03:59:44;14.05;76.66
54540;SHT30;40438;52.992;18.604;2023-04-24T04:02:16;14.10;76.69
54540;SHT30;40438;52.992;18.604;2023-04-24T04:04:42;14.11;76.69
54540;SHT30;40438;52.992;18.604;2023-04-24T04:07:08;14.15;76.71
54540;SHT30;40438;52.992;18.604;2023-04-24T04:09:34;14.21;76.60
54540;SHT30;40438;52.992;18.604;2023-04-24T04:12:00;14.21;76.78
54540;SHT30;40438;52.992;18.604;2023-04-24T04:14:27;14.21;76.58
54540;SHT30;40438;52.992;18.604;2023-04-24T04:16:53;14.25;76.55
54540;SHT30;40438;52.992;18.604;2023-04-24T04:19:19;14.21;76.51
54540;SHT30;40438;52.992;18.604;2023-04-24T04:21:45;14.25;76.60
54540;SHT30;40438;52.992;18.604;2023-04-24T04:24:24;14.29;76.56
54540;SHT30;40438;52.992;18.604;2023-04-24T04:26:51;14.33;76.47
54540;SHT30;40438;52.992;18.604;2023-04-24T04:29:28;14.35;76.20
54540;SHT30;40438;52.992;18.604;2023-04-24T04:31:55;14.41;75.99
54540;SHT30;40438;52.992;18.604;2023-04-24T04:34:21;14.45;76.11
54540;SHT30;40438;52.992;18.604;2023-04-24T04:36:46;14.45;76.28
54540;SHT30;40438;52.992;18.604;2023-04-24T04:39:32;14.51;76.12
54540;SHT30;40438;52.992;18.604;2023-04-24T04:42:01;14.58;76.00
54540;SHT30;40438;52.992;18.604;2023-04-24T04:44:35;14.65;75.90
54540;SHT30;40438;52.992;18.604;2023-04-24T04:47:02;14.66;75.75
54540;SHT30;40438;52.992;18.604;2023-04-24T04:49:31;14.66;75.42
54540;SHT30;40438;52.992;18.604;2023-04-24T04:51:57;14.68;75.22
54540;SHT30;40438;52.992;18.604;2023-04-24T04:54:25;14.69;75.25
54540;SHT30;40438;52.992;18.604;2023-04-24T04:56:51;14.72;75.21
54540;SHT30;40438;52.992;18.604;2023-04-24T04:59:17;14.68;75.38
54540;SHT30;40438;52.992;18.604;2023-04-24T05:01:45;14.69;75.55
54540;SHT30;40438;52.992;18.604;2023-04-24T05:04:16;14.70;75.69
54540;SHT30;40438;52.992;18.604;2023-04-24T05:06:41;14.77;75.48
54540;SHT30;40438;52.992;18.604;2023-04-24T05:09:08;14.77;75.72
54540;SHT30;40438;52.992;18.604;2023-04-24T05:11:53;14.81;75.66
54540;SHT30;40438;52.992;18.604;2023-04-24T05:14:21;14.87;75.65
54540;SHT30;40438;52.992;18.604;2023-04-24T05:16:49;14.87;75.47
54540;SHT30;40438;52.992;18.604;2023-04-24T05:19:18;14.89;75.46
54540;SHT30;40438;52.992;18.604;2023-04-24T05:21:45;14.91;75.30
54540;SHT30;40438;52.992;18.604;2023-04-24T05:24:11;14.96;75.04
54540;SHT30;40438;52.992;18.604;2023-04-24T05:26:56;14.99;74.83
54540;SHT30;40438;52.992;18.604;2023-04-24T05:29:26;15.01;74.69
54540;SHT30;40438;52.992;18.604;2023-04-24T05:31:54;15.06;74.43
54540;SHT30;40438;52.992;18.604;2023-04-24T05:34:20;15.07;74.06
54540;SHT30;40438;52.992;18.604;2023-04-24T05:36:50;15.11;74.16
54540;SHT30;40438;52.992;18.604;2023-04-24T05:39:16;15.11;74.22
54540;SHT30;40438;52.992;18.604;2023-04-24T05:41:42;15.15;74.02
54540;SHT30;40438;52.992;18.604;2023-04-24T05:44:08;15.14;73.56
54540;SHT30;40438;52.992;18.604;2023-04-24T05:46:34;15.10;73.44
54540;SHT30;40438;52.992;18.604;2023-04-24T05:49:01;15.08;73.18
54540;SHT30;40438;52.992;18.604;2023-04-24T05:51:27;15.10;73.16
54540;SHT30;40438;52.992;18.604;2023-04-24T05:53:53;15.15;72.89
54540;SHT30;40438;52.992;18.604;2023-04-24T05:56:19;15.20;72.67
54540;SHT30;40438;52.992;18.604;2023-04-24T05:58:45;15.17;72.39
54540;SHT30;40438;52.992;18.604;2023-04-24T06:01:11;15.22;72.45
54540;SHT30;40438;52.992;18.604;2023-04-24T06:03:37;15.31;71.96
54540;SHT30;40438;52.992;18.604;2023-04-24T06:06:05;15.34;71.76
54540;SHT30;40438;52.992;18.604;2023-04-24T06:08:32;15.41;71.71
54540;SHT30;40438;52.992;18.604;2023-04-24T06:10:58;15.48;71.33
54540;SHT30;40438;52.992;18.604;2023-04-24T06:13:24;15.55;70.82
54540;SHT30;40438;52.992;18.604;2023-04-24T06:16:10;15.62;70.83
54540;SHT30;40438;52.992;18.604;2023-04-24T06:18:39;15.70;70.71
54540;SHT30;40438;52.992;18.604;2023-04-24T06:21:06;15.83;70.04
54540;SHT30;40438;52.992;18.604;2023-04-24T06:23:32;15.94;69.43
54540;SHT30;40438;52.992;18.604;2023-04-24T06:25:58;16.03;69.30
54540;SHT30;40438;52.992;18.604;2023-04-24T06:28:24;16.12;69.03
54540;SHT30;40438;52.992;18.604;2023-04-24T06:30:51;16.24;68.80
54540;SHT30;40438;52.992;18.604;2023-04-24T06:33:17;16.24;68.43
54540;SHT30;40438;52.992;18.604;2023-04-24T06:35:43;16.33;67.44
54540;SHT30;40438;52.992;18.604;2023-04-24T06:38:10;16.41;67.40
54540;SHT30;40438;52.992;18.604;2023-04-24T06:40:36;16.45;67.36
54540;SHT30;40438;52.992;18.604;2023-04-24T06:43:01;16.52;67.22
54540;SHT30;40438;52.992;18.604;2023-04-24T06:45:27;16.57;67.25
54540;SHT30;40438;52.992;18.604;2023-04-24T06:47:53;16.61;66.69
54540;SHT30;40438;52.992;18.604;2023-04-24T06:50:19;16.55;67.27
54540;SHT30;40438;52.992;18.604;2023-04-24T06:52:45;16.59;67.23
54540;SHT30;40438;52.992;18.604;2023-04-24T06:55:12;16.57;67.32
54540;SHT30;40438;52.992;18.604;2023-04-24T06:57:38;16.58;67.40
54540;SHT30;40438;52.992;18.604;2023-04-24T07:00:05;16.59;67.31
54540;SHT30;40438;52.992;18.604;2023-04-24T07:02:31;16.59;66.23
54540;SHT30;40438;52.992;18.604;2023-04-24T07:04:56;16.57;66.92
54540;SHT30;40438;52.992;18.604;2023-04-24T07:07:22;16.59;67.38
54540;SHT30;40438;52.992;18.604;2023-04-24T07:09:48;16.61;67.17
54540;SHT30;40438;52.992;18.604;2023-04-24T07:12:15;16.69;66.62
54540;SHT30;40438;52.992;18.604;2023-04-24T07:14:41;16.69;66.55
54540;SHT30;40438;52.992;18.604;2023-04-24T07:17:06;16.71;66.35
54540;SHT30;40438;52.992;18.604;2023-04-24T07:19:33;16.89;66.27
54540;SHT30;40438;52.992;18.604;2023-04-24T07:21:59;16.89;65.80
54540;SHT30;40438;52.992;18.604;2023-04-24T07:24:25;17.07;64.83
54540;SHT30;40438;52.992;18.604;2023-04-24T07:26:51;17.22;65.17
54540;SHT30;40438;52.992;18.604;2023-04-24T07:29:18;17.38;63.71
54540;SHT30;40438;52.992;18.604;2023-04-24T07:31:44;17.57;63.06
54540;SHT30;40438;52.992;18.604;2023-04-24T07:34:10;17.70;63.10
54540;SHT30;40438;52.992;18.604;2023-04-24T07:36:36;17.85;60.42
54540;SHT30;40438;52.992;18.604;2023-04-24T07:39:02;18.15;60.63
54540;SHT30;40438;52.992;18.604;2023-04-24T07:41:27;18.30;59.07
54540;SHT30;40438;52.992;18.604;2023-04-24T07:43:53;18.49;57.42
54540;SHT30;40438;52.992;18.604;2023-04-24T07:46:20;18.56;57.09
54540;SHT30;40438;52.992;18.604;2023-04-24T07:48:46;18.56;56.44
54540;SHT30;40438;52.992;18.604;2023-04-24T07:51:12;18.73;56.88
54540;SHT30;40438;52.992;18.604;2023-04-24T07:53:38;18.88;56.52
54540;SHT30;40438;52.992;18.604;2023-04-24T07:56:04;18.70;55.86
54540;SHT30;40438;52.992;18.604;2023-04-24T07:58:30;18.73;56.53
54540;SHT30;40438;52.992;18.604;2023-04-24T08:00:56;18.92;57.08
54540;SHT30;40438;52.992;18.604;2023-04-24T08:03:23;18.94;55.66
54540;SHT30;40438;52.992;18.604;2023-04-24T08:05:49;18.85;56.10
54540;SHT30;40438;52.992;18.604;2023-04-24T08:08:15;18.81;56.41
54540;SHT30;40438;52.992;18.604;2023-04-24T08:10:40;18.81;57.13
54540;SHT30;40438;52.992;18.604;2023-04-24T08:13:06;18.96;57.27
54540;SHT30;40438;52.992;18.604;2023-04-24T08:15:32;19.21;56.13
54540;SHT30;40438;52.992;18.604;2023-04-24T08:17:58;19.23;54.71
54540;SHT30;40438;52.992;18.604;2023-04-24T08:20:25;19.32;55.73
54540;SHT30;40438;52.992;18.604;2023-04-24T08:22:51;19.42;54.77
54540;SHT30;40438;52.992;18.604;2023-04-24T08:25:17;19.38;54.38
54540;SHT30;40438;52.992;18.604;2023-04-24T08:27:42;19.53;54.69
54540;SHT30;40438;52.992;18.604;2023-04-24T08:30:09;19.59;54.82
54540;SHT30;40438;52.992;18.604;2023-04-24T08:32:36;19.56;54.83
54540;SHT30;40438;52.992;18.604;2023-04-24T08:35:02;19.63;54.92
54540;SHT30;40438;52.992;18.604;2023-04-24T08:37:29;19.77;55.14
54540;SHT30;40438;52.992;18.604;2023-04-24T08:39:55;19.84;53.27
54540;SHT30;40438;52.992;18.604;2023-04-24T08:42:21;19.81;52.70
54540;SHT30;40438;52.992;18.604;2023-04-24T08:44:49;19.97;52.11
54540;SHT30;40438;52.992;18.604;2023-04-24T08:47:15;20.10;50.04
54540;SHT30;40438;52.992;18.604;2023-04-24T08:49:41;20.05;51.14
54540;SHT30;40438;52.992;18.604;2023-04-24T08:52:08;20.11;51.76
54540;SHT30;40438;52.992;18.604;2023-04-24T08:54:36;20.07;51.96
54540;SHT30;40438;52.992;18.604;2023-04-24T08:57:02;20.08;52.36
54540;SHT30;40438;52.992;18.604;2023-04-24T08:59:29;19.90;52.59
54540;SHT30;40438;52.992;18.604;2023-04-24T09:01:55;19.62;52.87
54540;SHT30;40438;52.992;18.604;2023-04-24T09:04:22;19.56;53.69
54540;SHT30;40438;52.992;18.604;2023-04-24T09:06:48;19.42;53.83
54540;SHT30;40438;52.992;18.604;2023-04-24T09:09:16;19.25;53.95
54540;SHT30;40438;52.992;18.604;2023-04-24T09:11:44;19.18;53.92
54540;SHT30;40438;52.992;18.604;2023-04-24T09:14:10;19.21;54.28
54540;SHT30;40438;52.992;18.604;2023-04-24T09:16:36;18.94;55.48
54540;SHT30;40438;52.992;18.604;2023-04-24T09:19:02;18.83;55.06
54540;SHT30;40438;52.992;18.604;2023-04-24T09:21:31;18.52;55.95
54540;SHT30;40438;52.992;18.604;2023-04-24T09:23:58;18.19;56.17
54540;SHT30;40438;52.992;18.604;2023-04-24T09:26:24;17.77;59.81
54540;SHT30;40438;52.992;18.604;2023-04-24T09:28:53;17.50;63.63
54540;SHT30;40438;52.992;18.604;2023-04-24T09:31:19;17.31;64.48
54540;SHT30;40438;52.992;18.604;2023-04-24T09:33:54;17.00;63.42
54540;SHT30;40438;52.992;18.604;2023-04-24T09:36:26;16.89;66.29
54540;SHT30;40438;52.992;18.604;2023-04-24T09:38:55;16.76;65.18
54540;SHT30;40438;52.992;18.604;2023-04-24T09:41:22;16.59;65.29
54540;SHT30;40438;52.992;18.604;2023-04-24T09:43:48;16.59;66.01
54540;SHT30;40438;52.992;18.604;2023-04-24T09:46:18;16.49;66.43
54540;SHT30;40438;52.992;18.604;2023-04-24T09:48:44;16.49;66.15
54540;SHT30;40438;52.992;18.604;2023-04-24T09:51:10;16.44;66.27
54540;SHT30;40438;52.992;18.604;2023-04-24T09:53:35;16.37;65.45
54540;SHT30;40438;52.992;18.604;2023-04-24T09:56:07;16.42;65.32
54540;SHT30;40438;52.992;18.604;2023-04-24T09:58:35;16.33;66.63
54540;SHT30;40438;52.992;18.604;2023-04-24T10:01:00;16.34;67.74
54540;SHT30;40438;52.992;18.604;2023-04-24T10:03:29;16.47;66.91
54540;SHT30;40438;52.992;18.604;2023-04-24T10:05:58;16.38;67.23
54540;SHT30;40438;52.992;18.604;2023-04-24T10:08:24;16.44;67.29
54540;SHT30;40438;52.992;18.604;2023-04-24T10:10:50;16.41;67.94
54540;SHT30;40438;52.992;18.604;2023-04-24T10:13:16;16.44;68.16
54540;SHT30;40438;52.992;18.604;2023-04-24T10:15:42;16.42;67.43
54540;SHT30;40438;52.992;18.604;2023-04-24T10:18:08;16.37;66.75
54540;SHT30;40438;52.992;18.604;2023-04-24T10:20:37;16.34;67.61
54540;SHT30;40438;52.992;18.604;2023-04-24T10:23:03;16.31;68.17
54540;SHT30;40438;52.992;18.604;2023-04-24T10:25:30;16.24;68.21
54540;SHT30;40438;52.992;18.604;2023-04-24T10:27:57;16.26;67.22
54540;SHT30;40438;52.992;18.604;2023-04-24T10:30:24;16.26;67.64
54540;SHT30;40438;52.992;18.604;2023-04-24T10:32:50;16.26;67.31
54540;SHT30;40438;52.992;18.604;2023-04-24T10:35:17;16.28;67.79
54540;SHT30;40438;52.992;18.604;2023-04-24T10:37:48;16.31;66.08
54540;SHT30;40438;52.992;18.604;2023-04-24T10:40:17;16.36;65.81
54540;SHT30;40438;52.992;18.604;2023-04-24T10:42:47;16.37;65.28
54540;SHT30;40438;52.992;18.604;2023-04-24T10:45:16;16.42;66.09
54540;SHT30;40438;52.992;18.604;2023-04-24T10:47:42;16.48;65.07
54540;SHT30;40438;52.992;18.604;2023-04-24T10:50:09;16.52;63.82
54540;SHT30;40438;52.992;18.604;2023-04-24T10:52:46;16.64;63.23
54540;SHT30;40438;52.992;18.604;2023-04-24T10:55:12;16.64;64.39
54540;SHT30;40438;52.992;18.604;2023-04-24T10:57:38;16.69;63.55
54540;SHT30;40438;52.992;18.604;2023-04-24T11:00:14;16.78;63.40
54540;SHT30;40438;52.992;18.604;2023-04-24T11:02:40;16.88;62.95
54540;SHT30;40438;52.992;18.604;2023-04-24T11:05:07;16.98;63.03
54540;SHT30;40438;52.992;18.604;2023-04-24T11:10:29;17.19;59.86
54540;SHT30;40438;52.992;18.604;2023-04-24T11:12:55;17.24;61.36
54540;SHT30;40438;52.992;18.604;2023-04-24T11:15:21;17.34;60.79
54540;SHT30;40438;52.992;18.604;2023-04-24T11:17:47;17.47;60.27
54540;SHT30;40438;52.992;18.604;2023-04-24T11:20:17;17.63;58.11
54540;SHT30;40438;52.992;18.604;2023-04-24T11:22:43;17.75;57.69
54540;SHT30;40438;52.992;18.604;2023-04-24T11:25:09;17.86;57.58
54540;SHT30;40438;52.992;18.604;2023-04-24T11:27:40;18.02;57.87
54540;SHT30;40438;52.992;18.604;2023-04-24T11:30:07;18.17;55.54
54540;SHT30;40438;52.992;18.604;2023-04-24T11:32:35;18.32;55.68
54540;SHT30;40438;52.992;18.604;2023-04-24T11:35:02;18.36;55.20
54540;SHT30;40438;52.992;18.604;2023-04-24T11:37:33;18.49;55.83
54540;SHT30;40438;52.992;18.604;2023-04-24T11:39:59;18.60;54.73
54540;SHT30;40438;52.992;18.604;2023-04-24T11:42:25;18.67;54.21
54540;SHT30;40438;52.992;18.604;2023-04-24T11:44:54;18.60;53.71
54540;SHT30;40438;52.992;18.604;2023-04-24T11:47:20;18.71;54.19
54540;SHT30;40438;52.992;18.604;2023-04-24T11:49:45;18.80;54.56
54540;SHT30;40438;52.992;18.604;2023-04-24T11:52:15;18.87;54.61
54540;SHT30;40438;52.992;18.604;2023-04-24T11:54:48;18.83;54.20
54540;SHT30;40438;52.992;18.604;2023-04-24T11:57:13;18.94;54.22
54540;SHT30;40438;52.992;18.604;2023-04-24T11:59:39;19.06;53.20
54540;SHT30;40438;52.992;18.604;2023-04-24T12:02:07;19.15;53.50
54540;SHT30;40438;52.992;18.604;2023-04-24T12:04:39;19.26;53.77
54540;SHT30;40438;52.992;18.604;2023-04-24T12:07:05;19.43;53.08
54540;SHT30;40438;52.992;18.604;2023-04-24T12:09:40;19.71;52.94
54540;SHT30;40438;52.992;18.604;2023-04-24T12:12:06;20.07;51.58
54540;SHT30;40438;52.992;18.604;2023-04-24T12:14:32;20.38;51.67
54540;SHT30;40438;52.992;18.604;2023-04-24T12:16:58;20.45;50.15
54540;SHT30;40438;52.992;18.604;2023-04-24T12:19:25;20.52;50.40
54540;SHT30;40438;52.992;18.604;2023-04-24T12:22:02;20.51;50.00
54540;SHT30;40438;52.992;18.604;2023-04-24T12:24:27;20.49;50.51
54540;SHT30;40438;52.992;18.604;2023-04-24T12:26:53;20.62;50.62
54540;SHT30;40438;52.992;18.604;2023-04-24T12:29:19;20.66;50.23
54540;SHT30;40438;52.992;18.604;2023-04-24T12:31:45;21.00;50.35
54540;SHT30;40438;52.992;18.604;2023-04-24T12:34:18;20.90;50.33
54540;SHT30;40438;52.992;18.604;2023-04-24T12:36:45;20.90;50.15
54540;SHT30;40438;52.992;18.604;2023-04-24T12:39:14;20.76;50.13
54540;SHT30;40438;52.992;18.604;2023-04-24T12:41:50;20.62;50.49
54540;SHT30;40438;52.992;18.604;2023-04-24T12:44:16;20.51;50.56
54540;SHT30;40438;52.992;18.604;2023-04-24T12:46:41;20.73;50.75
54540;SHT30;40438;52.992;18.604;2023-04-24T12:49:07;21.01;49.93
54540;SHT30;40438;52.992;18.604;2023-04-24T12:51:33;21.45;49.31
54540;SHT30;40438;52.992;18.604;2023-04-24T12:54:00;21.95;48.36
54540;SHT30;40438;52.992;18.604;2023-04-24T12:56:26;22.05;47.00
54540;SHT30;40438;52.992;18.604;2023-04-24T12:58:52;22.03;46.50
54540;SHT30;40438;52.992;18.604;2023-04-24T13:01:18;22.08;46.61
54540;SHT30;40438;52.992;18.604;2023-04-24T13:03:44;22.03;47.36
54540;SHT30;40438;52.992;18.604;2023-04-24T13:06:09;21.71;47.85
54540;SHT30;40438;52.992;18.604;2023-04-24T13:08:35;21.63;48.31
54540;SHT30;40438;52.992;18.604;2023-04-24T13:11:02;21.89;47.97
54540;SHT30;40438;52.992;18.604;2023-04-24T13:13:28;22.21;47.05
54540;SHT30;40438;52.992;18.604;2023-04-24T13:15:54;22.30;46.49
54540;SHT30;40438;52.992;18.604;2023-04-24T13:18:20;22.06;47.09
54540;SHT30;40438;52.992;18.604;2023-04-24T13:20:45;21.89;48.05
54540;SHT30;40438;52.992;18.604;2023-04-24T13:23:11;21.98;48.30
54540;SHT30;40438;52.992;18.604;2023-04-24T13:25:37;21.95;47.84
54540;SHT30;40438;52.992;18.604;2023-04-24T13:28:04;21.63;48.93
54540;SHT30;40438;52.992;18.604;2023-04-24T13:30:31;21.38;49.57
54540;SHT30;40438;52.992;18.604;2023-04-24T13:32:56;21.32;50.33
54540;SHT30;40438;52.992;18.604;2023-04-24T13:35:22;21.07;51.03
54540;SHT30;40438;52.992;18.604;2023-04-24T13:37:48;20.83;51.40
54540;SHT30;40438;52.992;18.604;2023-04-24T13:40:14;20.82;52.25
54540;SHT30;40438;52.992;18.604;2023-04-24T13:42:40;20.75;51.03
54540;SHT30;40438;52.992;18.604;2023-04-24T13:45:08;20.87;52.10
54540;SHT30;40438;52.992;18.604;2023-04-24T13:47:34;20.84;52.23
54540;SHT30;40438;52.992;18.604;2023-04-24T13:50:00;20.73;51.17
54540;SHT30;40438;52.992;18.604;2023-04-24T13:52:26;20.48;50.98
54540;SHT30;40438;52.992;18.604;2023-04-24T13:54:51;20.36;51.85
54540;SHT30;40438;52.992;18.604;2023-04-24T13:57:17;20.26;51.87
54540;SHT30;40438;52.992;18.604;2023-04-24T13:59:43;20.24;52.20
54540;SHT30;40438;52.992;18.604;2023-04-24T14:02:11;20.25;52.74
54540;SHT30;40438;52.992;18.604;2023-04-24T14:04:36;20.26;53.33
54540;SHT30;40438;52.992;18.604;2023-04-24T14:07:02;20.38;53.27
54540;SHT30;40438;52.992;18.604;2023-04-24T14:09:28;20.33;53.41
54540;SHT30;40438;52.992;18.604;2023-04-24T14:11:54;20.33;53.21
54540;SHT30;40438;52.992;18.604;2023-04-24T14:14:19;20.20;53.40
54540;SHT30;40438;52.992;18.604;2023-04-24T14:16:45;20.00;53.51
54540;SHT30;40438;52.992;18.604;2023-04-24T14:19:12;19.98;53.67
54540;SHT30;40438;52.992;18.604;2023-04-24T14:21:38;20.12;54.14
54540;SHT30;40438;52.992;18.604;2023-04-24T14:24:04;19.93;53.71
54540;SHT30;40438;52.992;18.604;2023-04-24T14:26:30;19.90;53.25
54540;SHT30;40438;52.992;18.604;2023-04-24T14:28:56;19.67;54.06
54540;SHT30;40438;52.992;18.604;2023-04-24T14:31:21;19.70;54.33
54540;SHT30;40438;52.992;18.604;2023-04-24T14:33:47;19.71;54.41
54540;SHT30;40438;52.992;18.604;2023-04-24T14:36:14;19.81;55.12
54540;SHT30;40438;52.992;18.604;2023-04-24T14:38:40;19.78;54.91
54540;SHT30;40438;52.992;18.604;2023-04-24T14:41:06;19.81;54.95
54540;SHT30;40438;52.992;18.604;2023-04-24T14:43:32;19.96;54.88
54540;SHT30;40438;52.992;18.604;2023-04-24T14:45:57;20.04;54.36
54540;SHT30;40438;52.992;18.604;2023-04-24T14:48:23;20.05;54.65
54540;SHT30;40438;52.992;18.604;2023-04-24T14:50:49;20.00;54.82
54540;SHT30;40438;52.992;18.604;2023-04-24T14:53:16;20.03;54.88
54540;SHT30;40438;52.992;18.604;2023-04-24T14:55:42;20.03;55.04
54540;SHT30;40438;52.992;18.604;2023-04-24T14:58:08;20.28;54.37
54540;SHT30;40438;52.992;18.604;2023-04-24T15:00:34;20.39;54.06
54540;SHT30;40438;52.992;18.604;2023-04-24T15:03:00;20.70;54.01
54540;SHT30;40438;52.992;18.604;2023-04-24T15:05:26;20.69;54.20
54540;SHT30;40438;52.992;18.604;2023-04-24T15:07:52;21.06;53.73
54540;SHT30;40438;52.992;18.604;2023-04-24T15:10:19;21.21;53.38
54540;SHT30;40438;52.992;18.604;2023-04-24T15:12:45;21.01;53.42
54540;SHT30;40438;52.992;18.604;2023-04-24T15:15:11;20.72;54.45